Time;durP1;ratioP1;P1;durP2;ratioP2;P2;SDS_P1;SDS_P2;PMS_P1;PMS_P2;Temp;Humidity;BMP_temperature;BMP_pressure;BME280_temperature;BME280_humidity;BME280_pressure;Samples;Min_cycle;Max_cycle;Signal;HPM_P1;HPM_P2
2023/04/17 00:01:39;;;;;;;52.65;21.40;;;5.40;97.60;;;;;;5025508;28;20073;-83
2023/04/17 00:04:09;;;;;;;55.72;21.05;;;5.40;97.70;;;;;;5025628;28;20053;-83
2023/04/17 00:06:43;;;;;;;58.53;20.95;;;5.40;97.90;;;;;;5022742;28;20741;-83
2023/04/17 00:09:11;;;;;;;63.20;23.25;;;5.40;98.20;;;;;;5025425;28;20038;-83
2023/04/17 00:11:38;;;;;;;73.28;24.35;;;5.40;97.80;;;;;;5027838;28;20041;-82
2023/04/17 00:14:07;;;;;;;82.32;26.73;;;5.30;97.80;;;;;;5030132;28;20140;-82
2023/04/17 00:16:34;;;;;;;70.60;26.65;;;5.30;98.40;;;;;;5028425;28;20057;-82
2023/04/17 00:19:01;;;;;;;63.63;24.25;;;5.30;98.00;;;;;;5021116;28;20141;-82
2023/04/17 00:21:28;;;;;;;48.95;22.63;;;5.30;97.90;;;;;;5023875;28;20057;-82
2023/04/17 00:23:55;;;;;;;60.58;22.35;;;5.30;98.00;;;;;;5030763;28;20051;-82
2023/04/17 00:26:22;;;;;;;48.78;21.50;;;5.30;98.50;;;;;;5021002;28;20049;-82
2023/04/17 00:28:50;;;;;;;52.80;22.42;;;5.30;98.20;;;;;;5033175;28;20048;-82
2023/04/17 00:31:17;;;;;;;53.80;21.60;;;5.20;98.40;;;;;;5025326;28;20590;-82
2023/04/17 00:33:45;;;;;;;55.15;24.08;;;5.20;98.40;;;;;;5033253;28;20103;-82
2023/04/17 00:36:12;;;;;;;65.68;23.05;;;5.20;98.50;;;;;;5036489;28;20051;-82
2023/04/17 00:38:39;;;;;;;63.85;23.73;;;5.20;98.50;;;;;;5025142;28;20073;-82
2023/04/17 00:41:06;;;;;;;57.63;23.33;;;5.20;98.30;;;;;;5029249;28;20706;-82
2023/04/17 00:43:33;;;;;;;62.90;23.52;;;5.20;98.50;;;;;;5024906;28;20660;-81
2023/04/17 00:46:06;;;;;;;61.70;24.27;;;5.20;98.60;;;;;;5046372;28;20776;-82
2023/04/17 00:48:36;;;;;;;64.78;25.48;;;5.20;98.80;;;;;;5031474;28;20049;-81
2023/04/17 00:51:03;;;;;;;64.07;24.67;;;5.10;98.80;;;;;;5031714;28;20042;-82
2023/04/17 00:53:34;;;;;;;68.53;25.58;;;5.20;98.80;;;;;;5023720;28;20041;-82
2023/04/17 00:56:10;;;;;;;71.07;26.45;;;5.20;98.80;;;;;;5017603;28;20064;-82
2023/04/17 00:58:38;;;;;;;61.35;23.88;;;5.20;99.00;;;;;;5023108;28;20601;-82
2023/04/17 01:01:05;;;;;;;54.53;22.48;;;5.20;99.10;;;;;;5028404;28;20050;-82
2023/04/17 01:03:32;;;;;;;50.60;24.10;;;5.20;99.20;;;;;;5032046;28;20049;-81
2023/04/17 01:06:00;;;;;;;59.72;23.63;;;5.20;99.20;;;;;;5019775;28;20053;-82
2023/04/17 01:08:32;;;;;;;61.75;24.20;;;5.20;99.20;;;;;;5024777;28;20056;-81
2023/04/17 01:10:58;;;;;;;56.15;23.38;;;5.20;99.30;;;;;;5019540;28;20038;-81
2023/04/17 01:13:25;;;;;;;75.15;25.45;;;5.20;99.20;;;;;;5025108;28;20065;-82
2023/04/17 01:15:52;;;;;;;62.97;24.08;;;5.20;99.20;;;;;;5023523;28;20107;-82
2023/04/17 01:18:19;;;;;;;63.15;22.88;;;5.20;99.20;;;;;;5022408;28;20490;-82
2023/04/17 01:20:46;;;;;;;62.70;23.80;;;5.30;99.30;;;;;;5029759;28;20095;-81
2023/04/17 01:23:13;;;;;;;59.60;24.45;;;5.30;99.10;;;;;;5026190;28;20046;-82
2023/04/17 01:25:40;;;;;;;68.53;22.90;;;5.30;98.90;;;;;;5019890;28;20045;-82
2023/04/17 01:28:07;;;;;;;57.33;24.45;;;5.30;98.80;;;;;;5020938;28;20046;-82
2023/04/17 01:30:34;;;;;;;59.00;24.67;;;5.30;98.70;;;;;;5028880;28;20132;-82
2023/04/17 01:33:01;;;;;;;58.08;23.45;;;5.30;98.60;;;;;;5030526;28;20053;-82
2023/04/17 01:35:28;;;;;;;65.75;23.55;;;5.30;98.50;;;;;;5031334;28;20046;-82
2023/04/17 01:37:55;;;;;;;51.03;23.63;;;5.40;98.50;;;;;;5030067;28;20049;-82
2023/04/17 01:40:22;;;;;;;61.80;23.50;;;5.40;98.30;;;;;;5019474;28;20046;-82
2023/04/17 01:42:49;;;;;;;68.57;23.90;;;5.40;98.40;;;;;;5016462;28;20913;-82
2023/04/17 01:45:15;;;;;;;59.08;23.77;;;5.40;98.20;;;;;;5018293;28;20795;-82
2023/04/17 01:47:42;;;;;;;58.05;23.58;;;5.40;97.90;;;;;;5026566;28;20445;-82
2023/04/17 01:50:10;;;;;;;65.45;23.83;;;5.40;98.00;;;;;;5027192;28;20041;-82
2023/04/17 01:52:38;;;;;;;59.88;23.75;;;5.40;97.90;;;;;;5028179;28;20049;-82
2023/04/17 01:55:06;;;;;;;47.75;21.33;;;5.40;97.90;;;;;;5024891;28;20060;-82
2023/04/17 01:57:32;;;;;;;60.92;22.35;;;5.40;97.70;;;;;;5017629;28;20565;-83
2023/04/17 01:59:59;;;;;;;50.85;22.85;;;5.40;97.80;;;;;;5017576;28;20049;-82
2023/04/17 02:02:26;;;;;;;55.22;23.48;;;5.40;97.80;;;;;;5018606;28;20057;-82
2023/04/17 02:04:53;;;;;;;55.30;22.45;;;5.40;97.50;;;;;;5030686;28;20121;-82
2023/04/17 02:07:20;;;;;;;57.47;23.10;;;5.40;97.70;;;;;;5021659;28;20069;-82
2023/04/17 02:09:47;;;;;;;62.33;22.85;;;5.40;97.90;;;;;;5019825;28;20041;-82
2023/04/17 02:12:14;;;;;;;58.60;22.88;;;5.40;97.70;;;;;;5023402;28;20061;-82
2023/04/17 02:14:41;;;;;;;54.63;22.13;;;5.40;97.70;;;;;;5032140;28;20144;-82
2023/04/17 02:17:08;;;;;;;61.15;22.38;;;5.40;97.70;;;;;;5022461;28;20038;-82
2023/04/17 02:19:35;;;;;;;60.30;21.85;;;5.40;97.80;;;;;;5016794;28;20050;-82
2023/04/17 02:22:02;;;;;;;54.92;21.70;;;5.40;97.50;;;;;;5018077;28;20402;-82
2023/04/17 02:24:29;;;;;;;56.63;22.40;;;5.40;97.40;;;;;;5029128;28;20362;-82
2023/04/17 02:26:56;;;;;;;62.70;22.00;;;5.40;97.70;;;;;;5034253;28;20050;-82
2023/04/17 02:29:23;;;;;;;54.83;21.42;;;5.40;97.60;;;;;;5041922;28;20044;-83
2023/04/17 02:31:50;;;;;;;47.10;21.55;;;5.40;97.20;;;;;;5033380;28;20049;-83
2023/04/17 02:34:17;;;;;;;64.78;21.55;;;5.30;97.50;;;;;;5031044;28;20045;-82
2023/04/17 02:36:43;;;;;;;57.28;23.10;;;5.30;97.70;;;;;;5029010;28;20057;-83
2023/04/17 02:39:10;;;;;;;55.95;23.27;;;5.30;97.60;;;;;;5030034;28;20049;-83
2023/04/17 02:41:37;;;;;;;65.03;23.45;;;5.30;97.50;;;;;;5029766;28;20457;-83
2023/04/17 02:44:04;;;;;;;59.30;23.60;;;5.30;97.70;;;;;;5035028;28;20159;-82
2023/04/17 02:46:31;;;;;;;51.45;21.40;;;5.30;97.60;;;;;;5032997;28;20056;-82
2023/04/17 02:48:58;;;;;;;57.50;23.13;;;5.30;97.40;;;;;;5028431;28;20054;-82
2023/04/17 02:51:25;;;;;;;53.05;21.30;;;5.20;97.50;;;;;;5026662;28;20374;-83
2023/04/17 02:53:52;;;;;;;52.90;22.33;;;5.30;97.50;;;;;;5021797;28;20037;-82
2023/04/17 02:56:19;;;;;;;53.78;23.08;;;5.20;97.40;;;;;;5022573;28;20053;-83
2023/04/17 02:58:46;;;;;;;52.55;22.02;;;5.20;97.60;;;;;;5016046;28;20312;-82
2023/04/17 03:01:12;;;;;;;55.35;21.48;;;5.20;97.70;;;;;;5031030;28;20085;-83
2023/04/17 03:03:39;;;;;;;56.95;22.60;;;5.20;97.70;;;;;;5022204;28;20049;-83
2023/04/17 03:06:08;;;;;;;53.58;21.10;;;5.20;97.50;;;;;;5025728;28;20111;-83
2023/04/17 03:08:37;;;;;;;57.08;21.58;;;5.20;97.60;;;;;;5031626;28;20507;-82
2023/04/17 03:11:05;;;;;;;58.75;24.30;;;5.10;97.50;;;;;;5035925;28;20394;-83
2023/04/17 03:13:35;;;;;;;56.83;23.13;;;5.10;97.50;;;;;;5019519;28;20053;-82
2023/04/17 03:16:03;;;;;;;57.60;22.50;;;5.10;97.50;;;;;;5024509;28;20049;-82
2023/04/17 03:18:30;;;;;;;61.85;21.80;;;5.10;97.50;;;;;;5025639;28;20064;-82
2023/04/17 03:23:40;;;;;;;63.30;24.33;;;5.00;97.90;;;;;;5022530;28;20046;-83
2023/04/17 03:26:07;;;;;;;52.45;22.55;;;5.00;97.70;;;;;;5018644;28;20130;-82
2023/04/17 03:28:34;;;;;;;58.60;23.23;;;5.00;97.70;;;;;;5018134;28;20371;-82
2023/04/17 03:31:01;;;;;;;53.03;22.10;;;5.00;97.80;;;;;;5016260;28;20136;-82
2023/04/17 03:33:27;;;;;;;54.20;22.08;;;4.90;97.80;;;;;;5004652;28;20052;-82
2023/04/17 03:35:54;;;;;;;62.78;22.63;;;4.90;98.00;;;;;;5014487;28;20767;-82
2023/04/17 03:38:21;;;;;;;53.72;21.83;;;4.90;98.20;;;;;;5045628;23;20056;-82
2023/04/17 03:40:48;;;;;;;53.47;21.95;;;4.90;98.00;;;;;;5047028;28;20045;-83
2023/04/17 03:46:52;;;;;;;59.72;22.50;;;4.90;98.50;;;;;;5011239;28;20057;-73
2023/04/17 03:49:19;;;;;;;56.20;21.23;;;4.90;98.80;;;;;;5009582;28;20107;-82
2023/04/17 03:51:46;;;;;;;55.50;21.40;;;4.90;99.10;;;;;;5028548;28;20052;-82
2023/04/17 03:54:13;;;;;;;75.22;23.70;;;4.90;98.70;;;;;;5005530;28;21330;-82
2023/04/17 03:56:40;;;;;;;73.55;22.63;;;4.80;98.80;;;;;;5004783;28;20054;-82
2023/04/17 03:59:06;;;;;;;60.58;23.25;;;4.80;99.00;;;;;;5016353;28;20045;-83
2023/04/17 04:01:37;;;;;;;53.75;22.70;;;4.80;99.10;;;;;;5016853;28;20053;-82
2023/04/17 04:04:04;;;;;;;60.40;22.65;;;4.80;99.10;;;;;;5043978;28;20081;-82
2023/04/17 04:06:31;;;;;;;62.63;22.83;;;4.80;99.10;;;;;;5043180;28;20477;-82
2023/04/17 04:08:57;;;;;;;65.85;22.98;;;4.80;99.30;;;;;;5014572;28;20049;-82
2023/04/17 04:11:24;;;;;;;60.05;22.80;;;4.80;99.40;;;;;;5028090;28;20052;-81
2023/04/17 04:13:51;;;;;;;61.90;23.73;;;4.80;99.50;;;;;;5028234;28;20395;-82
2023/04/17 04:16:18;;;;;;;68.53;24.15;;;4.80;99.70;;;;;;5019642;28;20502;-82
2023/04/17 04:18:45;;;;;;;75.97;23.27;;;4.80;99.90;;;;;;5043925;28;20080;-81
2023/04/17 04:21:12;;;;;;;57.50;23.25;;;4.80;100.00;;;;;;5024336;28;20060;-81
2023/04/17 04:23:40;;;;;;;97.85;24.88;;;4.80;100.00;;;;;;5020530;28;20570;-81
2023/04/17 04:26:07;;;;;;;60.45;22.98;;;4.80;100.00;;;;;;5025931;28;20064;-82
2023/04/17 04:28:34;;;;;;;63.40;22.75;;;4.90;100.00;;;;;;5031626;28;20045;-81
2023/04/17 04:31:01;;;;;;;63.28;22.83;;;4.90;100.00;;;;;;5038461;28;20944;-82
2023/04/17 04:33:29;;;;;;;59.67;23.50;;;4.90;100.00;;;;;;5018722;28;20569;-81
2023/04/17 04:35:59;;;;;;;57.00;23.30;;;5.00;100.00;;;;;;5013210;28;20054;-82
2023/04/17 04:38:31;;;;;;;62.08;23.65;;;5.00;100.00;;;;;;5022339;28;20051;-82
2023/04/17 04:41:00;;;;;;;64.28;25.25;;;5.00;100.00;;;;;;5044674;28;20056;-82
2023/04/17 04:43:31;;;;;;;57.90;24.15;;;5.10;100.00;;;;;;5025480;28;20104;-81
2023/04/17 04:46:44;;;;;;;121.40;26.02;;;5.10;100.00;;;;;;5013675;28;20504;-82
2023/04/17 04:49:12;;;;;;;63.97;23.67;;;5.20;100.00;;;;;;5029963;28;20053;-73
2023/04/17 04:51:39;;;;;;;62.00;23.58;;;5.20;99.80;;;;;;5013593;28;20506;-74
2023/04/17 04:54:06;;;;;;;68.60;24.02;;;5.20;99.70;;;;;;5014162;28;20922;-74
2023/04/17 04:56:33;;;;;;;67.43;23.52;;;5.20;99.80;;;;;;5030191;22;20052;-74
2023/04/17 04:59:00;;;;;;;72.95;23.65;;;5.30;99.70;;;;;;5008739;28;20057;-74
2023/04/17 05:01:28;;;;;;;55.22;21.42;;;5.30;99.30;;;;;;5019475;28;20089;-74
2023/04/17 05:03:55;;;;;;;71.55;24.70;;;5.30;99.40;;;;;;5019532;28;20057;-74
2023/04/17 05:06:22;;;;;;;74.47;24.20;;;5.40;99.40;;;;;;5020376;28;20077;-74
2023/04/17 05:08:50;;;;;;;65.65;24.92;;;5.40;99.20;;;;;;5004828;28;20053;-74
2023/04/17 05:11:17;;;;;;;58.78;22.23;;;5.40;99.00;;;;;;5018007;28;20055;-74
2023/04/17 05:13:44;;;;;;;59.63;23.27;;;5.50;98.70;;;;;;5023849;28;20046;-74
2023/04/17 05:16:10;;;;;;;65.18;24.10;;;5.40;98.70;;;;;;5020324;28;20758;-73
2023/04/17 05:18:37;;;;;;;81.22;26.17;;;5.50;98.50;;;;;;5012221;23;20046;-78
2023/04/17 05:21:04;;;;;;;72.70;24.40;;;5.40;98.30;;;;;;4988817;28;20061;-80
2023/04/17 05:23:31;;;;;;;59.83;23.42;;;5.40;98.20;;;;;;4987166;28;20051;-82
2023/04/17 05:25:58;;;;;;;62.00;22.88;;;5.40;98.00;;;;;;5005350;23;20041;-73
2023/04/17 05:31:12;;;;;;;65.03;24.20;;;5.40;98.00;;;;;;4981385;28;20566;-73
2023/04/17 05:33:39;;;;;;;74.57;25.92;;;5.40;98.00;;;;;;4986763;28;20462;-74
2023/04/17 05:36:07;;;;;;;54.67;24.45;;;5.40;98.40;;;;;;5007691;28;20057;-73
2023/04/17 05:38:34;;;;;;;60.72;24.23;;;5.50;98.40;;;;;;4982619;28;20050;-72
2023/04/17 05:41:01;;;;;;;68.32;24.90;;;5.50;98.50;;;;;;5028337;23;20070;-72
2023/04/17 05:43:28;;;;;;;64.22;25.45;;;5.50;98.30;;;;;;5013223;28;20052;-71
2023/04/17 05:45:54;;;;;;;64.47;24.00;;;5.50;98.20;;;;;;5018344;28;20041;-74
2023/04/17 05:48:22;;;;;;;68.18;25.25;;;5.60;98.20;;;;;;5014875;28;20045;-73
2023/04/17 05:50:49;;;;;;;65.10;24.23;;;5.60;98.00;;;;;;5018333;28;20547;-73
2023/04/17 05:53:16;;;;;;;58.00;23.20;;;5.60;97.90;;;;;;5006694;28;20063;-73
2023/04/17 05:55:43;;;;;;;54.83;23.70;;;5.70;98.20;;;;;;5011824;28;20049;-73
2023/04/17 05:58:10;;;;;;;63.20;25.30;;;5.80;97.80;;;;;;5015037;28;20045;-73
2023/04/17 06:00:42;;;;;;;68.75;24.65;;;5.90;97.20;;;;;;5012780;28;20050;-73
2023/04/17 06:03:09;;;;;;;59.67;23.98;;;5.90;97.00;;;;;;5022451;28;20059;-73
2023/04/17 06:05:37;;;;;;;54.85;23.40;;;6.10;96.90;;;;;;5020560;28;20057;-73
2023/04/17 06:08:03;;;;;;;63.33;25.08;;;6.20;96.10;;;;;;5009971;28;20057;-73
2023/04/17 06:10:32;;;;;;;62.80;24.70;;;6.30;95.30;;;;;;5011621;28;20038;-73
2023/04/17 06:12:59;;;;;;;65.60;25.52;;;6.40;94.80;;;;;;5011315;28;20061;-73
2023/04/17 06:15:26;;;;;;;68.93;25.45;;;6.50;95.10;;;;;;5009934;28;20050;-73
2023/04/17 06:17:53;;;;;;;59.72;24.92;;;6.60;94.30;;;;;;5010749;28;20052;-73
2023/04/17 06:20:20;;;;;;;56.58;23.42;;;6.70;92.70;;;;;;5015560;28;20853;-73
2023/04/17 06:22:47;;;;;;;66.95;24.50;;;6.80;92.20;;;;;;5016282;28;20502;-73
2023/04/17 06:25:13;;;;;;;66.22;25.00;;;7.10;91.50;;;;;;5010999;28;20217;-73
2023/04/17 06:27:40;;;;;;;54.97;22.85;;;7.40;90.50;;;;;;5012137;28;20053;-73
2023/04/17 06:30:07;;;;;;;57.28;21.90;;;7.60;88.70;;;;;;5014990;28;20045;-73
2023/04/17 06:32:34;;;;;;;55.63;20.75;;;7.80;87.80;;;;;;5014544;28;20046;-73
2023/04/17 06:35:01;;;;;;;49.65;20.20;;;8.10;86.30;;;;;;5017539;28;20162;-73
2023/04/17 06:37:28;;;;;;;43.45;19.55;;;8.20;84.90;;;;;;5020228;28;20152;-73
2023/04/17 06:39:55;;;;;;;41.88;19.23;;;8.40;85.80;;;;;;5018110;28;20736;-73
2023/04/17 06:42:22;;;;;;;40.33;18.50;;;8.60;84.10;;;;;;5014111;28;20046;-73
2023/04/17 06:44:49;;;;;;;42.22;19.00;;;8.70;83.30;;;;;;5015965;28;20819;-73
2023/04/17 06:47:15;;;;;;;37.88;18.95;;;9.10;81.90;;;;;;5012452;28;20738;-73
2023/04/17 06:49:42;;;;;;;38.33;17.27;;;9.30;81.70;;;;;;5013942;28;20049;-73
2023/04/17 06:52:09;;;;;;;39.60;17.90;;;9.60;79.30;;;;;;5013696;28;20049;-73
2023/04/17 06:54:37;;;;;;;31.02;15.63;;;9.90;78.70;;;;;;5013077;28;20230;-73
2023/04/17 06:57:05;;;;;;;47.08;18.30;;;10.30;76.30;;;;;;5014008;28;20056;-74
2023/04/17 06:59:33;;;;;;;33.30;17.15;;;10.70;76.00;;;;;;5008937;28;20556;-73
2023/04/17 07:02:00;;;;;;;33.15;16.42;;;11.00;74.50;;;;;;5011978;28;20065;-73
2023/04/17 07:04:30;;;;;;;34.90;16.63;;;11.20;72.70;;;;;;5012394;28;20053;-74
2023/04/17 07:06:57;;;;;;;34.55;15.77;;;11.20;71.90;;;;;;5019768;28;20277;-74
2023/04/17 07:09:25;;;;;;;40.03;16.80;;;11.40;72.00;;;;;;5020981;28;20046;-73
2023/04/17 07:11:52;;;;;;;29.45;14.73;;;11.70;71.20;;;;;;5018955;28;20054;-73
2023/04/17 07:14:19;;;;;;;33.70;16.20;;;12.30;69.20;;;;;;5015001;28;20053;-74
2023/04/17 07:16:46;;;;;;;26.60;14.75;;;12.40;67.90;;;;;;5016819;28;20714;-73
2023/04/17 07:19:13;;;;;;;32.65;14.82;;;12.80;67.20;;;;;;5019474;28;20056;-75
2023/04/17 07:21:40;;;;;;;31.25;15.10;;;13.00;65.70;;;;;;5016793;28;20046;-73
2023/04/17 07:24:07;;;;;;;29.65;15.07;;;13.20;66.60;;;;;;5018643;28;20057;-73
2023/04/17 07:26:35;;;;;;;36.72;14.75;;;13.70;63.80;;;;;;5013790;28;20060;-74
2023/04/17 07:29:02;;;;;;;32.15;14.02;;;13.90;63.70;;;;;;5009864;28;20669;-74
2023/04/17 07:31:30;;;;;;;33.20;14.95;;;14.30;60.00;;;;;;5013590;28;20050;-73
2023/04/17 07:33:56;;;;;;;27.67;12.65;;;13.90;60.80;;;;;;5016953;28;20045;-73
2023/04/17 07:36:23;;;;;;;36.33;13.35;;;14.60;60.00;;;;;;5016935;28;20037;-74
2023/04/17 07:38:50;;;;;;;28.20;13.82;;;14.80;59.40;;;;;;5023073;28;20532;-74
2023/04/17 07:41:17;;;;;;;30.90;13.98;;;15.00;57.10;;;;;;5012457;28;20049;-74
2023/04/17 07:43:44;;;;;;;20.45;12.43;;;14.80;57.10;;;;;;5011786;28;20046;-74
2023/04/17 07:46:10;;;;;;;32.30;15.07;;;14.70;56.30;;;;;;5013203;28;20077;-73
2023/04/17 07:48:38;;;;;;;26.23;13.57;;;14.70;58.70;;;;;;5024332;28;20058;-73
2023/04/17 07:51:06;;;;;;;31.58;13.25;;;15.20;56.90;;;;;;5013290;28;20051;-74
2023/04/17 07:53:35;;;;;;;24.58;12.38;;;15.50;56.40;;;;;;5010773;28;20055;-73
2023/04/17 07:56:01;;;;;;;21.20;12.82;;;15.10;58.30;;;;;;5011424;28;20053;-73
2023/04/17 07:58:28;;;;;;;28.63;12.98;;;15.30;57.00;;;;;;5016117;28;20057;-73
2023/04/17 08:00:56;;;;;;;29.42;11.68;;;15.50;57.40;;;;;;5015278;28;20055;-73
2023/04/17 08:03:23;;;;;;;35.50;12.35;;;15.70;56.20;;;;;;5022697;28;20158;-73
2023/04/17 08:05:53;;;;;;;25.35;11.38;;;15.60;55.90;;;;;;5021143;28;20057;-73
2023/04/17 08:08:21;;;;;;;27.50;11.45;;;16.00;56.20;;;;;;5021965;28;20053;-73
2023/04/17 08:10:49;;;;;;;58.30;14.55;;;16.40;55.40;;;;;;5016709;28;20054;-73
2023/04/17 08:13:16;;;;;;;23.30;12.70;;;16.30;57.50;;;;;;5021212;28;20052;-73
2023/04/17 08:15:44;;;;;;;21.80;12.25;;;16.20;55.70;;;;;;5020684;28;20049;-73
2023/04/17 08:18:11;;;;;;;21.98;11.85;;;16.20;55.50;;;;;;5015983;28;20151;-74
2023/04/17 08:20:38;;;;;;;25.98;13.10;;;16.30;55.00;;;;;;5019473;28;20049;-74
2023/04/17 08:23:06;;;;;;;23.10;12.85;;;16.70;54.00;;;;;;5017652;28;20429;-74
2023/04/17 08:25:32;;;;;;;22.75;12.00;;;16.80;53.40;;;;;;5014168;28;20088;-74
2023/04/17 08:27:59;;;;;;;18.50;11.10;;;16.70;54.50;;;;;;5018357;28;20807;-73
2023/04/17 08:30:26;;;;;;;30.42;11.80;;;17.00;52.60;;;;;;5019749;28;20678;-72
2023/04/17 08:32:54;;;;;;;23.95;11.48;;;17.10;52.20;;;;;;5011905;28;20049;-72
2023/04/17 08:35:21;;;;;;;17.95;10.63;;;17.00;50.40;;;;;;5011646;28;20061;-72
2023/04/17 08:37:48;;;;;;;49.78;12.95;;;16.80;51.40;;;;;;5015697;28;20044;-72
2023/04/17 08:40:17;;;;;;;25.35;9.93;;;17.10;52.20;;;;;;5017189;28;20054;-73
2023/04/17 08:42:46;;;;;;;22.90;10.50;;;17.50;51.20;;;;;;5011658;28;20053;-72
2023/04/17 08:45:13;;;;;;;25.45;11.70;;;17.70;51.00;;;;;;5010467;28;20049;-72
2023/04/17 08:47:41;;;;;;;16.00;10.32;;;17.60;48.70;;;;;;5008299;28;20115;-73
2023/04/17 08:50:17;;;;;;;22.80;11.80;;;17.20;50.30;;;;;;5009991;28;20053;-73
2023/04/17 08:52:46;;;;;;;21.45;10.98;;;17.20;49.10;;;;;;5023787;28;20981;-72
2023/04/17 08:55:15;;;;;;;26.65;11.57;;;17.60;50.10;;;;;;5022669;28;20057;-73
2023/04/17 08:58:02;;;;;;;20.48;11.13;;;17.80;49.30;;;;;;5021247;28;20054;-73
2023/04/17 09:00:35;;;;;;;20.02;11.15;;;18.00;49.10;;;;;;5010680;28;20058;-72
2023/04/17 09:03:07;;;;;;;19.52;10.70;;;17.90;49.50;;;;;;5018206;28;20045;-72
2023/04/17 09:05:37;;;;;;;20.05;11.00;;;18.00;49.20;;;;;;5013962;28;20507;-72
2023/04/17 09:08:24;;;;;;;23.40;11.88;;;18.40;49.40;;;;;;5016654;28;20457;-72
2023/04/17 09:10:53;;;;;;;16.75;10.48;;;18.40;49.10;;;;;;5008148;28;20046;-72
2023/04/17 09:13:23;;;;;;;20.58;10.90;;;18.50;48.90;;;;;;5010885;28;20157;-72
2023/04/17 09:16:08;;;;;;;19.33;12.10;;;18.90;48.70;;;;;;5013077;28;20046;-72
2023/04/17 09:18:36;;;;;;;22.83;10.70;;;18.70;47.90;;;;;;5015786;28;20053;-72
2023/04/17 09:21:05;;;;;;;22.85;10.75;;;17.90;49.10;;;;;;5010265;28;20054;-72
2023/04/17 09:23:54;;;;;;;25.85;11.60;;;17.50;48.70;;;;;;5017647;28;20053;-72
2023/04/17 09:26:24;;;;;;;17.67;9.88;;;17.70;49.80;;;;;;5029617;28;20045;-72
2023/04/17 09:29:02;;;;;;;18.05;10.73;;;17.90;48.80;;;;;;5021197;28;20127;-72
2023/04/17 09:31:33;;;;;;;24.85;10.38;;;17.20;49.20;;;;;;5009758;28;20096;-72
2023/04/17 09:34:06;;;;;;;18.65;10.90;;;18.00;51.40;;;;;;5011170;28;20056;-72
2023/04/17 09:36:35;;;;;;;27.05;10.77;;;17.90;49.90;;;;;;5014956;28;20057;-72
2023/04/17 09:39:04;;;;;;;21.35;10.43;;;18.40;49.20;;;;;;5021258;28;20663;-72
2023/04/17 09:44:28;;;;;;;25.30;11.27;;;18.20;46.50;;;;;;4999535;28;20073;-78
2023/04/17 09:46:56;;;;;;;20.52;11.32;;;17.20;50.40;;;;;;5000399;28;20056;-78
2023/04/17 09:52:25;;;;;;;21.02;11.77;;;18.60;49.10;;;;;;5000650;28;20066;-78
2023/04/17 09:54:53;;;;;;;25.23;11.25;;;18.20;49.10;;;;;;5000924;28;20062;-78
2023/04/17 09:57:20;;;;;;;16.80;11.10;;;18.50;48.30;;;;;;4995840;28;20050;-78
2023/04/17 09:59:47;;;;;;;20.00;11.32;;;18.30;49.40;;;;;;5001862;28;20060;-78
2023/04/17 10:02:20;;;;;;;28.30;11.93;;;18.80;50.70;;;;;;5001434;28;20046;-78
2023/04/17 10:04:47;;;;;;;21.60;11.38;;;18.80;49.10;;;;;;5011476;28;20061;-78
2023/04/17 10:07:15;;;;;;;24.13;11.63;;;19.40;47.90;;;;;;5003290;28;20080;-78
2023/04/17 10:09:45;;;;;;;20.08;11.82;;;19.10;49.90;;;;;;5002467;28;20107;-78
2023/04/17 10:12:19;;;;;;;20.33;11.77;;;19.30;50.00;;;;;;5001290;28;20045;-78
2023/04/17 10:14:50;;;;;;;23.38;11.63;;;19.50;47.30;;;;;;5001669;28;20081;-78
2023/04/17 10:17:27;;;;;;;19.38;11.48;;;18.70;48.70;;;;;;5003112;28;20143;-78
2023/04/17 10:19:54;;;;;;;22.70;12.52;;;18.90;46.40;;;;;;4999803;28;20109;-78
2023/04/17 10:22:22;;;;;;;24.08;11.10;;;19.10;48.90;;;;;;4983907;28;20137;-78
2023/04/17 10:25:08;;;;;;;23.15;11.68;;;19.10;48.90;;;;;;4993126;28;20058;-78
2023/04/17 10:27:35;;;;;;;20.65;11.80;;;19.10;47.60;;;;;;5006258;28;20579;-78
2023/04/17 10:30:06;;;;;;;22.10;12.35;;;19.10;48.70;;;;;;4999806;28;20403;-78
2023/04/17 10:32:33;;;;;;;19.15;11.57;;;18.90;49.20;;;;;;5003398;23;20054;-78
2023/04/17 10:35:15;;;;;;;21.40;10.77;;;19.10;49.00;;;;;;5003018;28;20136;-78
2023/04/17 10:37:51;;;;;;;17.85;11.32;;;18.90;48.90;;;;;;5005837;28;20042;-79
2023/04/17 10:40:28;;;;;;;17.17;10.95;;;18.50;51.50;;;;;;5012031;28;20249;-78
2023/04/17 10:43:24;;;;;;;16.10;10.82;;;18.00;51.40;;;;;;5004930;28;20690;-79
2023/04/17 10:45:54;;;;;;;17.98;11.23;;;18.40;51.00;;;;;;5008636;28;20467;-78
2023/04/17 10:48:40;;;;;;;21.27;11.10;;;18.80;49.50;;;;;;5007681;28;20053;-78
2023/04/17 10:51:22;;;;;;;13.93;9.63;;;18.60;51.00;;;;;;5003284;28;20131;-78
2023/04/17 10:54:08;;;;;;;17.00;9.63;;;18.30;51.20;;;;;;5004347;28;20248;-78
2023/04/17 10:56:38;;;;;;;18.00;10.48;;;19.30;50.40;;;;;;5000342;28;20057;-78
2023/04/17 10:59:13;;;;;;;14.60;9.45;;;19.80;48.50;;;;;;5008190;28;20053;-78
2023/04/17 11:01:47;;;;;;;;;;;19.60;49.10;;;;;;5009812;28;20058;-79
2023/04/17 11:04:27;;;;;;;16.25;10.00;;;19.40;50.30;;;;;;5003273;28;20381;-79
2023/04/17 11:06:54;;;;;;;16.27;9.85;;;18.70;47.10;;;;;;5019821;23;20046;-73
2023/04/17 11:09:24;;;;;;;14.48;8.95;;;17.40;49.90;;;;;;5002330;28;20056;-73
2023/04/17 11:11:51;;;;;;;16.30;9.20;;;16.10;52.50;;;;;;5030310;28;20128;-73
2023/04/17 11:14:20;;;;;;;16.38;7.95;;;15.00;55.10;;;;;;5015005;28;20164;-73
2023/04/17 11:16:49;;;;;;;13.13;7.93;;;14.70;56.70;;;;;;5017695;28;20416;-73
2023/04/17 11:19:23;;;;;;;13.50;7.57;;;15.00;54.20;;;;;;5026058;28;20494;-73
2023/04/17 11:22:00;;;;;;;18.97;7.80;;;14.60;54.40;;;;;;5026261;28;20091;-74
2023/04/17 11:24:30;;;;;;;16.45;8.18;;;14.30;56.20;;;;;;5019715;28;20362;-74
2023/04/17 11:26:59;;;;;;;13.35;7.32;;;13.80;56.40;;;;;;5024507;28;20092;-74
2023/04/17 11:29:27;;;;;;;15.57;8.32;;;13.20;58.00;;;;;;5005292;28;20057;-74
2023/04/17 11:31:56;;;;;;;17.70;7.40;;;12.90;58.70;;;;;;5020634;28;20180;-73
2023/04/17 11:35:16;;;;;;;14.30;7.28;;;12.80;59.00;;;;;;5005379;28;20132;-73
2023/04/17 11:38:10;;;;;;;12.07;6.60;;;12.80;59.80;;;;;;5000154;28;20049;-73
2023/04/17 11:40:57;;;;;;;12.90;6.28;;;12.80;59.80;;;;;;5022003;28;20053;-73
2023/04/17 11:43:26;;;;;;;15.25;6.72;;;12.60;59.20;;;;;;5016874;28;20049;-72
2023/04/17 11:45:58;;;;;;;23.20;6.80;;;12.30;60.10;;;;;;5002125;28;20719;-73
2023/04/17 11:48:29;;;;;;;12.18;6.47;;;12.50;62.80;;;;;;5017283;28;20191;-73
2023/04/17 11:50:58;;;;;;;13.57;5.97;;;13.30;61.00;;;;;;5003310;28;20054;-73
2023/04/17 11:53:25;;;;;;;14.85;6.47;;;14.40;57.20;;;;;;5022151;28;20046;-72
2023/04/17 11:56:14;;;;;;;13.65;5.80;;;14.40;55.30;;;;;;5020047;28;20742;-73
2023/04/17 11:58:52;;;;;;;9.55;5.03;;;13.70;57.00;;;;;;5011199;28;20064;-72
2023/04/17 12:01:24;;;;;;;8.70;4.82;;;13.30;57.70;;;;;;5002963;28;20049;-73
2023/04/17 12:03:58;;;;;;;8.70;4.78;;;12.90;58.30;;;;;;5009886;28;20499;-74
2023/04/17 12:06:38;;;;;;;10.85;5.13;;;12.80;58.40;;;;;;5003123;28;20078;-73
2023/04/17 12:09:05;;;;;;;7.63;4.38;;;12.90;60.20;;;;;;5021346;28;20045;-73
2023/04/17 12:11:33;;;;;;;6.63;4.25;;;14.00;57.90;;;;;;5018192;28;20049;-74
2023/04/17 12:14:03;;;;;;;5.40;3.63;;;13.90;55.40;;;;;;5001726;28;20049;-73
2023/04/17 12:16:30;;;;;;;6.90;4.70;;;13.80;57.00;;;;;;4990856;28;20056;-74
2023/04/17 12:18:57;;;;;;;12.55;4.85;;;13.70;56.00;;;;;;5022615;28;20140;-73
2023/04/17 12:21:24;;;;;;;11.52;5.07;;;13.40;56.90;;;;;;5019997;28;20049;-73
2023/04/17 12:23:51;;;;;;;8.20;4.32;;;13.10;57.90;;;;;;5020462;28;20055;-74
2023/04/17 12:26:18;;;;;;;7.70;4.43;;;13.70;59.60;;;;;;5020317;28;20075;-74
2023/04/17 12:28:45;;;;;;;7.60;4.18;;;14.10;55.60;;;;;;5021372;28;20053;-74
2023/04/17 12:31:11;;;;;;;7.30;4.13;;;14.00;55.70;;;;;;5002287;28;20061;-74
2023/04/17 12:33:38;;;;;;;8.73;4.85;;;13.60;56.40;;;;;;5003310;28;20049;-74
2023/04/17 12:36:06;;;;;;;8.13;3.70;;;13.20;57.30;;;;;;5021022;28;20064;-73
2023/04/17 12:38:32;;;;;;;5.63;3.80;;;13.30;58.20;;;;;;5002000;28;20132;-74
2023/04/17 12:40:59;;;;;;;11.35;4.32;;;13.30;59.00;;;;;;5001863;28;20057;-74
2023/04/17 12:43:26;;;;;;;7.20;3.50;;;13.90;57.70;;;;;;5018713;28;20096;-73
2023/04/17 12:45:53;;;;;;;7.07;4.38;;;14.30;56.20;;;;;;5018651;28;20060;-75
2023/04/17 12:48:20;;;;;;;12.80;7.45;;;14.10;55.30;;;;;;5001683;28;20076;-76
2023/04/17 12:50:47;;;;;;;7.85;4.93;;;13.70;55.10;;;;;;5004926;28;20160;-75
2023/04/17 12:53:14;;;;;;;15.02;6.32;;;13.50;56.50;;;;;;5003204;28;20045;-74
2023/04/17 12:55:42;;;;;;;14.73;4.85;;;13.10;57.30;;;;;;5000862;28;20056;-74
2023/04/17 12:58:11;;;;;;;7.05;4.15;;;12.90;59.20;;;;;;5017470;28;20724;-75